Plymouth Light

42° 00' 12"N, 70° 36' 04"W, Elevation 54 ft.
Eastern Time

Hourly observations for the last 72 hours

Date Time Temperature (°F) Humi-
dity

(%)
Wind
(mph)
Pressure Rain (in) Sun
(W/m2)
ET
(in)
Air Dew 6 Hour 1 Hr 3 Hr 6 Hr Day
Alt
(in)
Sea
Level

(mb)
Max Min
20 12:00 64.9 62.8 93 SW 31 G 38 29.88 1011.9 0.04 469 0.025
20 11:00 62.8 61.9 97 SW 27 G 38 29.88 1011.8 0.03 0.04 603 0.015
20 10:00 59.7 59.1 98 SW 22 G 32 29.87 1011.5 0.04 209 0.012
20 09:00 60.6 59.7 97 SW 28 G 38 29.83 1010.3 0.03 0.04 90 0.009
20 08:00 61.7 60.5 62.8 58.9 96 SW 28 G 38 29.83 1010.2 0.01 33 0.007
20 07:00 62.0 60.8 96 SSW 27 G 40 29.81 1009.5 0.01 37 0.006
20 06:00 61.6 60.7 97 SSW 27 G 36 29.79 1008.8 0.01 0 0.005
20 05:00 60.8 60.2 98 SW 29 G 40 29.78 1008.5 0.01 0 0.004
20 04:00 60.2 59.3 97 SSW 27 G 36 29.78 1008.4 0.01 0 0.003
20 03:00 60.8 60.2 98 SW 32 G 40 29.78 1008.6 0.01 0 0.002
20 02:00 59.4 58.5 61.3 58.1 97 SSW 28 G 34 29.78 1008.5 0.01 0.01 0.01 0 0.001
20 01:00 59.4 58.5 97 SSW 27 G 37 29.80 1009.1 0.01 0.01 0 0.000
20 00:00 58.5 57.4 96 SSW 21 G 28 29.81 1009.4 0.01 0 0.099
19 23:00 59.1 57.7 95 SW 21 G 30 29.82 1009.8 0.01 0 0.098
19 22:00 60.8 59.4 95 SW 26 G 39 29.83 1010.3 0.01 0 0.097
19 21:00 59.7 58.3 95 SW 22 G 31 29.84 1010.4 0.01 0 0.096
19 20:00 59.9 58.2 64.2 59.1 94 SW 26 G 33 29.82 1009.9 0.01 0.01 0 0.095
19 19:00 61.3 59.6 94 SW 25 G 35 29.81 1009.3 0.01 14 0.094
19 18:00 60.0 58.6 95 SW 18 G 25 29.81 1009.4 0.01 79 0.092
19 17:00 60.2 58.8 95 SW 16 G 22 29.80 1009.3 0.01 0.01 0.01 116 0.089
19 16:00 62.0 59.0 90 SW 25 G 40 29.80 1009.0 0.00 213 0.083
19 15:00 62.0 59.7 92 SW 24 G 31 29.80 1009.0 0.00 165 0.076
19 14:00 64.0 60.1 64.5 59.5 87 SW 27 G 39 29.79 1008.8 0.00 301 0.066
19 13:00 63.6 58.3 83 SW 14 G 34 29.80 1009.1 0.00 304 0.056
19 12:00 62.5 58.3 86 WSW 17 G 34 29.81 1009.4 0.00 220 0.045
19 11:00 62.6 58.7 87 SW 23 G 37 29.81 1009.5 0.00 301 0.032
19 10:00 60.4 57.5 90 SW 17 G 35 29.81 1009.4 0.00 236 0.022
19 09:00 61.8 57.2 85 WSW 14 G 35 29.81 1009.4 0.00 454 0.013
19 08:00 59.7 56.1 60.5 56.6 88 SW 11 G 32 29.81 1009.4 0.00 294 0.008
19 07:00 60.4 57.5 90 WSW 19 G 35 29.80 1009.1 0.00 114 0.006
19 06:00 59.6 57.6 93 WSW 16 G 27 29.80 1009.3 0.00 0 0.005
19 05:00 58.3 57.2 96 SW 15 G 27 29.80 1009.3 0.00 0 0.004
19 04:00 57.9 56.5 95 SW 19 G 37 29.81 1009.3 0.00 0 0.003
19 03:00 58.0 56.6 95 WSW 16 G 31 29.82 1010.0 0.00 0 0.002
19 02:00 56.9 55.8 58.3 52.7 96 SW 16 G 28 29.85 1010.9 0.00 0 0.001
19 01:00 56.9 55.8 96 SW 24 G 29 29.87 1011.5 0.00 0 0.000
19 00:00 55.5 54.7 97 SW 25 G 34 29.87 1011.4 0.00 0 0.047
18 23:00 56.0 54.6 95 SW 28 G 39 29.87 1011.6 0.00 0 0.046
18 22:00 56.1 54.4 94 SSW 22 G 31 29.91 1012.9 0.00 0 0.045
18 21:00 53.7 51.4 92 SSW 20 G 29 29.94 1014.0 0.00 0 0.043
18 20:00 52.9 49.4 53.3 44.7 88 S 21 G 33 29.96 1014.7 0.00 0 0.041
18 19:00 48.2 46.0 92 S 14 G 22 30.00 1016.0 0.00 0 0.040
18 18:00 44.8 43.2 94 S 14 G 20 30.03 1016.9 0.00 14 0.039
18 17:00 45.2 42.4 90 S 15 G 19 30.08 1018.6 0.00 23 0.037
18 16:00 47.0 41.8 82 S 18 G 27 30.10 1019.5 0.00 33 0.033
18 15:00 48.9 41.0 74 S 31 G 38 30.10 1019.4 0.00 236 0.028
18 14:00 46.9 41.1 47.0 43.2 80 S 23 G 31 30.16 1021.5 0.00 123 0.021
18 13:00 45.8 40.0 80 S 21 G 27 30.19 1022.4 0.00 183 0.017
18 12:00 44.4 39.6 83 S 19 G 25 30.21 1023.1 0.00 91 0.013
18 11:00 44.7 38.9 80 S 18 G 24 30.21 1023.0 0.00 134 0.009
18 10:00 44.2 38.1 79 S 12 G 16 30.24 1023.9 0.00 70 0.006
18 09:00 43.3 39.1 85 S 13 G 16 30.23 1023.8 0.00 49 0.004
18 08:00 43.4 37.6 43.4 41.2 80 S 9 G 10 30.25 1024.3 0.00 39 0.002
18 07:00 41.9 38.9 89 SSW 4 G 7 30.25 1024.5 0.00 199 0.001
18 06:00 41.4 38.7 90 SSW 7 G 9 30.24 1024.0 0.00 7 0.001
18 05:00 42.4 39.1 88 SSW 4 G 7 30.23 1023.6 0.00 0 0.001
18 04:00 42.2 39.2 89 SSW 4 G 7 30.21 1023.2 0.00 0 0.001
18 03:00 43.2 39.6 87 SW 3 G 8 30.22 1023.5 0.00 0 0.001
18 02:00 42.9 39.3 47.0 42.8 87 SW 5 G 9 30.23 1023.8 0.00 0 0.001
18 01:00 43.0 38.8 85 SW 5 G 10 30.24 1024.1 0.00 0 0.000
18 00:00 43.1 38.0 82 SSW 5 G 9 30.23 1023.7 0.00 0 0.168
17 23:00 43.4 38.0 81 SSW 9 G 12 30.22 1023.4 0.00 0 0.167
17 22:00 43.9 38.5 81 SSW 9 G 12 30.21 1022.9 0.00 0 0.166
17 21:00 45.2 38.4 77 S 10 G 13 30.19 1022.6 0.00 0 0.164
17 20:00 47.0 37.7 48.5 46.0 70 SSW 10 G 13 30.18 1021.9 0.00 0 0.162
17 19:00 46.3 38.1 73 S 14 G 19 30.16 1021.4 0.00 18 0.158
17 18:00 46.5 39.0 75 S 10 G 15 30.14 1020.6 0.00 186 0.151
17 17:00 47.4 37.7 69 SE 10 G 16 30.13 1020.3 0.00 410 0.141
17 16:00 46.7 38.9 74 SSE 8 G 11 30.12 1020.1 0.00 582 0.128
17 15:00 47.5 36.7 66 E 10 G 13 30.12 1020.0 0.00 728 0.113
17 14:00 47.9 36.3 50.8 46.3 64 E 8 G 11 30.13 1020.2 0.00 835 0.095
17 13:00 49.3 36.4 61 ENE 9 G 12 30.11 1019.8 0.00 882 0.076

Data generated by WxSolution Version 1.9.1.1, Build 2017.11.27.